sensor_id;sensor_type;location;lat;lon;timestamp;pressure;altitude;pressure_sealevel;temperature;humidity
28008;BME280;15333;50.010;20.020;2022-10-15T00:00:48;98791.16;;;9.82;100.00
28008;BME280;15333;50.010;20.020;2022-10-15T00:04:05;98794.19;;;9.78;100.00
28008;BME280;15333;50.010;20.020;2022-10-15T00:07:06;98780.97;;;9.88;100.00
28008;BME280;15333;50.010;20.020;2022-10-15T00:10:07;98784.69;;;9.98;100.00
28008;BME280;15333;50.010;20.020;2022-10-15T00:13:08;98776.97;;;10.06;100.00
28008;BME280;15333;50.010;20.020;2022-10-15T00:16:16;98775.06;;;10.08;100.00
28008;BME280;15333;50.010;20.020;2022-10-15T00:19:17;98776.72;;;10.09;100.00
28008;BME280;15333;50.010;20.020;2022-10-15T00:22:18;98776.50;;;10.12;100.00
28008;BME280;15333;50.010;20.020;2022-10-15T00:25:18;98770.75;;;10.18;100.00
28008;BME280;15333;50.010;20.020;2022-10-15T00:28:19;98771.53;;;10.31;100.00
28008;BME280;15333;50.010;20.020;2022-10-15T00:31:23;98763.31;;;10.45;100.00
28008;BME280;15333;50.010;20.020;2022-10-15T00:34:26;98754.88;;;10.63;100.00
28008;BME280;15333;50.010;20.020;2022-10-15T00:37:27;98753.44;;;10.81;100.00
28008;BME280;15333;50.010;20.020;2022-10-15T00:40:28;98759.06;;;10.89;100.00
28008;BME280;15333;50.010;20.020;2022-10-15T00:46:43;98751.03;;;10.89;100.00
28008;BME280;15333;50.010;20.020;2022-10-15T00:49:55;98754.19;;;10.83;100.00
28008;BME280;15333;50.010;20.020;2022-10-15T00:53:06;98754.69;;;10.88;100.00
28008;BME280;15333;50.010;20.020;2022-10-15T00:56:07;98757.38;;;10.88;100.00
28008;BME280;15333;50.010;20.020;2022-10-15T00:59:10;98752.75;;;10.90;100.00
28008;BME280;15333;50.010;20.020;2022-10-15T01:02:12;98743.97;;;10.88;100.00
28008;BME280;15333;50.010;20.020;2022-10-15T01:05:14;98747.41;;;10.90;100.00
28008;BME280;15333;50.010;20.020;2022-10-15T01:08:15;98735.84;;;10.89;100.00
28008;BME280;15333;50.010;20.020;2022-10-15T01:15:18;98732.81;;;10.94;100.00
28008;BME280;15333;50.010;20.020;2022-10-15T01:18:41;98727.91;;;10.88;100.00
28008;BME280;15333;50.010;20.020;2022-10-15T01:21:51;98731.81;;;10.84;100.00
28008;BME280;15333;50.010;20.020;2022-10-15T01:31:29;98719.66;;;10.80;100.00
28008;BME280;15333;50.010;20.020;2022-10-15T01:35:02;98722.44;;;10.78;100.00
28008;BME280;15333;50.010;20.020;2022-10-15T01:42:09;98725.22;;;10.77;100.00
28008;BME280;15333;50.010;20.020;2022-10-15T01:45:16;98718.66;;;10.70;100.00
28008;BME280;15333;50.010;20.020;2022-10-15T01:48:30;98720.34;;;10.71;100.00
28008;BME280;15333;50.010;20.020;2022-10-15T01:51:35;98721.53;;;10.67;100.00
28008;BME280;15333;50.010;20.020;2022-10-15T01:54:38;98717.41;;;10.63;100.00
28008;BME280;15333;50.010;20.020;2022-10-15T01:57:41;98713.22;;;10.47;100.00
28008;BME280;15333;50.010;20.020;2022-10-15T02:00:44;98713.31;;;10.35;100.00
28008;BME280;15333;50.010;20.020;2022-10-15T02:03:51;98714.84;;;10.26;100.00
28008;BME280;15333;50.010;20.020;2022-10-15T02:07:06;98710.88;;;10.08;100.00
28008;BME280;15333;50.010;20.020;2022-10-15T02:10:28;98705.69;;;9.94;100.00
28008;BME280;15333;50.010;20.020;2022-10-15T02:17:08;98707.28;;;9.72;100.00
28008;BME280;15333;50.010;20.020;2022-10-15T02:20:19;98703.75;;;9.72;100.00
28008;BME280;15333;50.010;20.020;2022-10-15T02:23:30;98691.25;;;9.72;100.00
28008;BME280;15333;50.010;20.020;2022-10-15T02:26:36;98695.84;;;9.70;100.00
28008;BME280;15333;50.010;20.020;2022-10-15T02:29:39;98692.94;;;9.73;100.00
28008;BME280;15333;50.010;20.020;2022-10-15T02:32:45;98702.66;;;9.74;100.00
28008;BME280;15333;50.010;20.020;2022-10-15T02:35:48;98712.63;;;9.72;100.00
28008;BME280;15333;50.010;20.020;2022-10-15T02:38:51;98696.47;;;9.74;100.00
28008;BME280;15333;50.010;20.020;2022-10-15T02:41:55;98702.44;;;9.77;100.00
28008;BME280;15333;50.010;20.020;2022-10-15T02:44:58;98700.53;;;9.79;100.00
28008;BME280;15333;50.010;20.020;2022-10-15T02:47:59;98695.19;;;9.79;100.00
28008;BME280;15333;50.010;20.020;2022-10-15T02:51:00;98691.75;;;9.77;100.00
28008;BME280;15333;50.010;20.020;2022-10-15T02:54:06;98694.72;;;9.86;100.00
28008;BME280;15333;50.010;20.020;2022-10-15T02:57:07;98689.38;;;9.86;100.00
28008;BME280;15333;50.010;20.020;2022-10-15T03:00:09;98685.94;;;9.83;100.00
28008;BME280;15333;50.010;20.020;2022-10-15T03:03:12;98687.66;;;9.85;100.00
28008;BME280;15333;50.010;20.020;2022-10-15T03:06:13;98688.16;;;9.90;100.00
28008;BME280;15333;50.010;20.020;2022-10-15T03:09:15;98682.59;;;9.93;100.00
28008;BME280;15333;50.010;20.020;2022-10-15T03:12:16;98674.34;;;9.96;100.00
28008;BME280;15333;50.010;20.020;2022-10-15T03:15:17;98666.72;;;10.02;100.00
28008;BME280;15333;50.010;20.020;2022-10-15T03:18:20;98679.81;;;10.18;100.00
28008;BME280;15333;50.010;20.020;2022-10-15T03:21:21;98667.41;;;10.17;100.00
28008;BME280;15333;50.010;20.020;2022-10-15T03:24:23;98674.91;;;10.12;100.00
28008;BME280;15333;50.010;20.020;2022-10-15T03:27:26;98671.72;;;10.07;100.00
28008;BME280;15333;50.010;20.020;2022-10-15T03:30:27;98666.59;;;10.04;100.00
28008;BME280;15333;50.010;20.020;2022-10-15T03:33:29;98673.16;;;10.00;100.00
28008;BME280;15333;50.010;20.020;2022-10-15T03:36:30;98669.25;;;9.93;100.00
28008;BME280;15333;50.010;20.020;2022-10-15T03:39:32;98674.81;;;9.90;100.00
28008;BME280;15333;50.010;20.020;2022-10-15T03:42:36;98663.88;;;9.93;100.00
28008;BME280;15333;50.010;20.020;2022-10-15T03:45:38;98660.47;;;9.91;100.00
28008;BME280;15333;50.010;20.020;2022-10-15T03:48:49;98660.69;;;9.88;100.00
28008;BME280;15333;50.010;20.020;2022-10-15T03:51:51;98659.44;;;9.80;100.00
28008;BME280;15333;50.010;20.020;2022-10-15T03:54:53;98654.09;;;9.80;100.00
28008;BME280;15333;50.010;20.020;2022-10-15T03:57:55;98650.00;;;9.88;100.00
28008;BME280;15333;50.010;20.020;2022-10-15T04:00:56;98644.91;;;9.85;100.00
28008;BME280;15333;50.010;20.020;2022-10-15T04:03:57;98646.59;;;9.86;100.00
28008;BME280;15333;50.010;20.020;2022-10-15T04:06:59;98647.09;;;9.91;100.00
28008;BME280;15333;50.010;20.020;2022-10-15T04:10:02;98645.91;;;9.95;100.00
28008;BME280;15333;50.010;20.020;2022-10-15T04:13:10;98640.53;;;9.95;100.00
28008;BME280;15333;50.010;20.020;2022-10-15T04:16:11;98639.31;;;9.88;100.00
28008;BME280;15333;50.010;20.020;2022-10-15T04:19:12;98643.59;;;9.90;100.00
28008;BME280;15333;50.010;20.020;2022-10-15T04:22:15;98638.00;;;9.93;100.00
28008;BME280;15333;50.010;20.020;2022-10-15T04:25:24;98648.38;;;10.09;100.00
28008;BME280;15333;50.010;20.020;2022-10-15T04:28:25;98652.28;;;10.16;100.00
28008;BME280;15333;50.010;20.020;2022-10-15T04:31:26;98655.63;;;10.19;100.00
28008;BME280;15333;50.010;20.020;2022-10-15T04:34:28;98652.59;;;10.24;100.00
28008;BME280;15333;50.010;20.020;2022-10-15T04:37:32;98647.25;;;10.24;100.00
28008;BME280;15333;50.010;20.020;2022-10-15T04:40:33;98647.94;;;10.15;100.00
28008;BME280;15333;50.010;20.020;2022-10-15T04:43:35;98644.63;;;10.11;100.00
28008;BME280;15333;50.010;20.020;2022-10-15T04:46:40;98646.44;;;10.11;100.00
28008;BME280;15333;50.010;20.020;2022-10-15T04:50:04;98643.75;;;10.35;100.00
28008;BME280;15333;50.010;20.020;2022-10-15T04:53:34;98639.44;;;10.67;100.00
28008;BME280;15333;50.010;20.020;2022-10-15T04:56:38;98633.22;;;10.55;100.00
28008;BME280;15333;50.010;20.020;2022-10-15T04:59:39;98640.06;;;10.71;100.00
28008;BME280;15333;50.010;20.020;2022-10-15T05:02:59;98629.09;;;10.63;100.00
28008;BME280;15333;50.010;20.020;2022-10-15T05:06:17;98635.91;;;10.89;98.95
28008;BME280;15333;50.010;20.020;2022-10-15T05:09:19;98634.22;;;10.99;98.51
28008;BME280;15333;50.010;20.020;2022-10-15T05:12:24;98638.84;;;11.08;97.05
28008;BME280;15333;50.010;20.020;2022-10-15T05:15:27;98635.28;;;11.19;96.95
28008;BME280;15333;50.010;20.020;2022-10-15T05:18:27;98632.81;;;11.38;94.64
28008;BME280;15333;50.010;20.020;2022-10-15T05:21:31;98635.03;;;11.33;95.31
28008;BME280;15333;50.010;20.020;2022-10-15T05:24:35;98642.34;;;11.31;95.58
28008;BME280;15333;50.010;20.020;2022-10-15T05:27:46;98641.00;;;11.36;94.93
28008;BME280;15333;50.010;20.020;2022-10-15T05:30:47;98636.84;;;11.44;95.05
28008;BME280;15333;50.010;20.020;2022-10-15T05:33:49;98637.06;;;11.52;94.69
28008;BME280;15333;50.010;20.020;2022-10-15T05:36:51;98637.78;;;11.65;94.04
28008;BME280;15333;50.010;20.020;2022-10-15T05:39:52;98627.63;;;11.68;93.56
28008;BME280;15333;50.010;20.020;2022-10-15T05:42:53;98632.72;;;11.83;92.36
28008;BME280;15333;50.010;20.020;2022-10-15T05:45:57;98634.47;;;12.04;91.58
28008;BME280;15333;50.010;20.020;2022-10-15T05:48:58;98641.81;;;12.23;91.24
28008;BME280;15333;50.010;20.020;2022-10-15T05:52:00;98641.31;;;12.50;88.42
28008;BME280;15333;50.010;20.020;2022-10-15T05:55:19;98637.44;;;12.64;87.06
28008;BME280;15333;50.010;20.020;2022-10-15T05:58:20;98646.69;;;12.80;86.01
28008;BME280;15333;50.010;20.020;2022-10-15T06:01:21;98634.06;;;12.92;85.51
28008;BME280;15333;50.010;20.020;2022-10-15T06:04:25;98642.69;;;12.95;85.20
28008;BME280;15333;50.010;20.020;2022-10-15T06:07:26;98649.75;;;12.97;85.73
28008;BME280;15333;50.010;20.020;2022-10-15T06:10:27;98647.50;;;13.02;86.14
28008;BME280;15333;50.010;20.020;2022-10-15T06:13:28;98655.84;;;12.99;86.09
28008;BME280;15333;50.010;20.020;2022-10-15T06:16:29;98647.25;;;13.05;85.27
28008;BME280;15333;50.010;20.020;2022-10-15T06:19:30;98652.03;;;13.01;84.81
28008;BME280;15333;50.010;20.020;2022-10-15T06:22:31;98660.91;;;13.13;84.86
28008;BME280;15333;50.010;20.020;2022-10-15T06:25:32;98665.19;;;13.25;85.13
28008;BME280;15333;50.010;20.020;2022-10-15T06:28:34;98666.16;;;13.24;85.77
28008;BME280;15333;50.010;20.020;2022-10-15T06:31:35;98673.97;;;13.27;85.88
28008;BME280;15333;50.010;20.020;2022-10-15T06:34:36;98666.88;;;13.26;85.05
28008;BME280;15333;50.010;20.020;2022-10-15T06:37:37;98671.47;;;13.35;84.62
28008;BME280;15333;50.010;20.020;2022-10-15T06:40:38;98677.16;;;13.51;84.20
28008;BME280;15333;50.010;20.020;2022-10-15T06:43:39;98676.34;;;13.60;83.71
28008;BME280;15333;50.010;20.020;2022-10-15T06:46:40;98676.38;;;13.80;82.69
28008;BME280;15333;50.010;20.020;2022-10-15T06:49:41;98678.94;;;13.91;82.55
28008;BME280;15333;50.010;20.020;2022-10-15T06:52:41;98673.72;;;13.99;82.09
28008;BME280;15333;50.010;20.020;2022-10-15T06:55:43;98675.84;;;14.05;83.88
28008;BME280;15333;50.010;20.020;2022-10-15T06:58:44;98664.94;;;14.26;82.55
28008;BME280;15333;50.010;20.020;2022-10-15T07:01:45;98661.72;;;14.41;79.67
28008;BME280;15333;50.010;20.020;2022-10-15T07:04:46;98652.06;;;14.48;78.87
28008;BME280;15333;50.010;20.020;2022-10-15T07:07:52;98652.63;;;14.52;78.35
28008;BME280;15333;50.010;20.020;2022-10-15T07:10:54;98650.84;;;14.80;75.60
28008;BME280;15333;50.010;20.020;2022-10-15T07:13:57;98650.72;;;14.81;74.67
28008;BME280;15333;50.010;20.020;2022-10-15T07:16:58;98646.91;;;14.84;74.27
28008;BME280;15333;50.010;20.020;2022-10-15T07:19:59;98645.00;;;14.94;74.15
28008;BME280;15333;50.010;20.020;2022-10-15T07:23:01;98648.88;;;14.92;74.56
28008;BME280;15333;50.010;20.020;2022-10-15T07:26:07;98656.91;;;15.01;73.81
28008;BME280;15333;50.010;20.020;2022-10-15T07:29:08;98658.81;;;15.18;72.58
28008;BME280;15333;50.010;20.020;2022-10-15T07:32:09;98663.16;;;15.29;72.87
28008;BME280;15333;50.010;20.020;2022-10-15T07:35:10;98660.81;;;15.44;72.62
28008;BME280;15333;50.010;20.020;2022-10-15T07:38:11;98660.50;;;15.56;72.06
28008;BME280;15333;50.010;20.020;2022-10-15T07:41:12;98659.59;;;15.65;69.12
28008;BME280;15333;50.010;20.020;2022-10-15T07:44:16;98659.84;;;15.72;69.16
28008;BME280;15333;50.010;20.020;2022-10-15T07:47:17;98650.75;;;15.73;69.42
28008;BME280;15333;50.010;20.020;2022-10-15T07:50:19;98649.38;;;15.69;69.26
28008;BME280;15333;50.010;20.020;2022-10-15T07:53:20;98662.69;;;15.71;69.84
28008;BME280;15333;50.010;20.020;2022-10-15T07:56:27;98658.03;;;15.90;68.57
28008;BME280;15333;50.010;20.020;2022-10-15T07:59:28;98661.84;;;15.97;69.57
28008;BME280;15333;50.010;20.020;2022-10-15T08:02:28;98658.13;;;16.16;67.65
28008;BME280;15333;50.010;20.020;2022-10-15T08:05:30;98659.44;;;16.30;66.64
28008;BME280;15333;50.010;20.020;2022-10-15T08:08:32;98650.84;;;16.34;66.60
28008;BME280;15333;50.010;20.020;2022-10-15T08:11:33;98657.44;;;16.32;66.28
28008;BME280;15333;50.010;20.020;2022-10-15T08:14:35;98656.72;;;16.48;65.92
28008;BME280;15333;50.010;20.020;2022-10-15T08:17:36;98657.41;;;16.67;65.59
28008;BME280;15333;50.010;20.020;2022-10-15T08:20:38;98658.16;;;16.77;65.48
28008;BME280;15333;50.010;20.020;2022-10-15T08:23:39;98660.81;;;16.95;64.60
28008;BME280;15333;50.010;20.020;2022-10-15T08:26:40;98675.25;;;17.04;64.14
28008;BME280;15333;50.010;20.020;2022-10-15T08:29:41;98665.16;;;17.14;64.10
28008;BME280;15333;50.010;20.020;2022-10-15T08:32:42;98658.13;;;17.29;62.38
28008;BME280;15333;50.010;20.020;2022-10-15T08:35:43;98664.34;;;17.55;62.41
28008;BME280;15333;50.010;20.020;2022-10-15T08:38:44;98665.41;;;17.63;62.59
28008;BME280;15333;50.010;20.020;2022-10-15T08:41:49;98653.28;;;17.75;62.22
28008;BME280;15333;50.010;20.020;2022-10-15T08:44:57;98659.47;;;18.17;59.60
28008;BME280;15333;50.010;20.020;2022-10-15T08:48:10;98656.09;;;18.31;58.83
28008;BME280;15333;50.010;20.020;2022-10-15T08:51:25;98646.28;;;18.55;56.46
28008;BME280;15333;50.010;20.020;2022-10-15T08:54:29;98654.78;;;18.68;56.38
28008;BME280;15333;50.010;20.020;2022-10-15T09:01:16;98653.91;;;18.92;55.60
28008;BME280;15333;50.010;20.020;2022-10-15T09:04:37;98655.13;;;18.57;54.38
28008;BME280;15333;50.010;20.020;2022-10-15T09:07:52;98654.97;;;18.66;53.85
28008;BME280;15333;50.010;20.020;2022-10-15T09:11:02;98653.25;;;18.82;53.10
28008;BME280;15333;50.010;20.020;2022-10-15T09:14:10;98646.63;;;18.84;53.68
28008;BME280;15333;50.010;20.020;2022-10-15T09:17:23;98646.63;;;18.84;52.23
28008;BME280;15333;50.010;20.020;2022-10-15T09:20:30;98647.63;;;18.91;52.08
28008;BME280;15333;50.010;20.020;2022-10-15T09:23:33;98654.72;;;19.08;52.18
28008;BME280;15333;50.010;20.020;2022-10-15T09:33:33;98660.84;;;19.02;51.39
28008;BME280;15333;50.010;20.020;2022-10-15T09:36:43;98665.59;;;19.00;51.79
28008;BME280;15333;50.010;20.020;2022-10-15T09:39:56;98663.41;;;19.04;50.92
28008;BME280;15333;50.010;20.020;2022-10-15T09:43:03;98666.28;;;18.86;51.17
28008;BME280;15333;50.010;20.020;2022-10-15T09:46:04;98676.81;;;18.57;52.37
28008;BME280;15333;50.010;20.020;2022-10-15T10:02:24;98676.81;;;18.57;52.67
28008;BME280;15333;50.010;20.020;2022-10-15T10:08:28;98672.41;;;18.56;52.72
28008;BME280;15333;50.010;20.020;2022-10-15T10:11:51;98661.88;;;18.45;52.25
28008;BME280;15333;50.010;20.020;2022-10-15T10:14:59;98675.75;;;18.50;52.34
28008;BME280;15333;50.010;20.020;2022-10-15T10:18:02;98679.13;;;18.35;52.83
28008;BME280;15333;50.010;20.020;2022-10-15T10:21:24;98679.66;;;18.39;53.16
28008;BME280;15333;50.010;20.020;2022-10-15T10:24:28;98671.34;;;18.40;53.02
28008;BME280;15333;50.010;20.020;2022-10-15T10:27:32;98669.50;;;18.33;51.98
28008;BME280;15333;50.010;20.020;2022-10-15T10:30:35;98674.91;;;18.41;52.31
28008;BME280;15333;50.010;20.020;2022-10-15T10:36:47;98682.22;;;18.57;52.71
28008;BME280;15333;50.010;20.020;2022-10-15T10:39:59;98666.66;;;18.59;51.47
28008;BME280;15333;50.010;20.020;2022-10-15T10:43:22;98681.19;;;18.50;52.02
28008;BME280;15333;50.010;20.020;2022-10-15T10:46:23;98685.25;;;18.54;52.68
28008;BME280;15333;50.010;20.020;2022-10-15T10:49:30;98682.06;;;18.58;52.53
28008;BME280;15333;50.010;20.020;2022-10-15T10:52:35;98695.56;;;18.26;53.21
28008;BME280;15333;50.010;20.020;2022-10-15T10:55:38;98692.91;;;17.92;55.46
28008;BME280;15333;50.010;20.020;2022-10-15T10:58:40;98698.81;;;17.79;55.81
28008;BME280;15333;50.010;20.020;2022-10-15T11:01:42;98696.38;;;18.10;55.39
28008;BME280;15333;50.010;20.020;2022-10-15T11:04:43;98705.44;;;17.93;55.21
28008;BME280;15333;50.010;20.020;2022-10-15T11:11:23;98694.03;;;18.23;53.27
28008;BME280;15333;50.010;20.020;2022-10-15T11:21:05;98701.47;;;18.29;53.40
28008;BME280;15333;50.010;20.020;2022-10-15T11:24:20;98702.16;;;18.23;52.95
28008;BME280;15333;50.010;20.020;2022-10-15T11:31:15;98694.34;;;18.04;53.46
28008;BME280;15333;50.010;20.020;2022-10-15T11:37:54;98682.47;;;18.05;52.98
28008;BME280;15333;50.010;20.020;2022-10-15T11:41:25;98677.59;;;18.25;52.04
28008;BME280;15333;50.010;20.020;2022-10-15T11:47:57;98670.31;;;18.33;51.32
28008;BME280;15333;50.010;20.020;2022-10-15T11:51:17;98668.63;;;18.49;51.33
28008;BME280;15333;50.010;20.020;2022-10-15T11:54:35;98668.63;;;18.49;51.11
28008;BME280;15333;50.010;20.020;2022-10-15T11:57:40;98661.72;;;18.62;50.60
28008;BME280;15333;50.010;20.020;2022-10-15T12:00:49;98662.88;;;18.84;51.05
28008;BME280;15333;50.010;20.020;2022-10-15T12:03:55;98664.28;;;18.72;50.62
28008;BME280;15333;50.010;20.020;2022-10-15T12:06:57;98663.59;;;18.70;50.20
28008;BME280;15333;50.010;20.020;2022-10-15T12:10:21;98656.63;;;18.51;50.63
28008;BME280;15333;50.010;20.020;2022-10-15T12:13:37;98657.47;;;18.52;50.07
28008;BME280;15333;50.010;20.020;2022-10-15T12:20:07;98663.41;;;18.39;50.09
28008;BME280;15333;50.010;20.020;2022-10-15T12:23:40;98667.28;;;18.45;50.17
28008;BME280;15333;50.010;20.020;2022-10-15T12:26:41;98659.84;;;18.47;50.26
28008;BME280;15333;50.010;20.020;2022-10-15T12:29:42;98657.13;;;18.55;49.09
28008;BME280;15333;50.010;20.020;2022-10-15T12:32:45;98659.50;;;18.50;49.11
28008;BME280;15333;50.010;20.020;2022-10-15T12:35:58;98656.44;;;18.36;49.17
28008;BME280;15333;50.010;20.020;2022-10-15T12:39:05;98656.59;;;18.35;49.86
28008;BME280;15333;50.010;20.020;2022-10-15T12:42:21;98671.34;;;18.40;49.68
28008;BME280;15333;50.010;20.020;2022-10-15T12:45:34;98663.22;;;18.40;49.92
28008;BME280;15333;50.010;20.020;2022-10-15T12:48:43;98656.63;;;18.43;49.15
28008;BME280;15333;50.010;20.020;2022-10-15T12:51:45;98658.16;;;18.46;48.61
28008;BME280;15333;50.010;20.020;2022-10-15T12:54:46;98664.25;;;18.39;48.05
28008;BME280;15333;50.010;20.020;2022-10-15T12:57:54;98651.41;;;18.58;47.96
28008;BME280;15333;50.010;20.020;2022-10-15T13:00:55;98665.75;;;18.50;48.44
28008;BME280;15333;50.010;20.020;2022-10-15T13:03:58;98660.50;;;18.40;48.78
28008;BME280;15333;50.010;20.020;2022-10-15T13:07:03;98647.28;;;18.21;49.23
28008;BME280;15333;50.010;20.020;2022-10-15T13:10:17;98649.00;;;18.47;48.22
28008;BME280;15333;50.010;20.020;2022-10-15T13:13:23;98652.94;;;18.68;48.37
28008;BME280;15333;50.010;20.020;2022-10-15T13:16:25;98648.31;;;18.69;48.07
28008;BME280;15333;50.010;20.020;2022-10-15T13:22:33;98639.00;;;18.80;47.59
28008;BME280;15333;50.010;20.020;2022-10-15T13:25:34;98638.50;;;18.76;46.84
28008;BME280;15333;50.010;20.020;2022-10-15T13:28:39;98639.88;;;18.80;47.39
28008;BME280;15333;50.010;20.020;2022-10-15T13:31:41;98642.09;;;18.60;47.58
28008;BME280;15333;50.010;20.020;2022-10-15T13:34:46;98637.84;;;18.58;47.42
28008;BME280;15333;50.010;20.020;2022-10-15T13:37:47;98636.13;;;18.49;47.81
28008;BME280;15333;50.010;20.020;2022-10-15T13:40:50;98631.22;;;18.52;47.60
28008;BME280;15333;50.010;20.020;2022-10-15T13:43:52;98635.63;;;18.37;47.72
28008;BME280;15333;50.010;20.020;2022-10-15T13:46:58;98641.69;;;18.23;48.36
28008;BME280;15333;50.010;20.020;2022-10-15T13:53:36;98644.56;;;18.21;48.14
28008;BME280;15333;50.010;20.020;2022-10-15T13:56:45;98654.38;;;18.14;47.73
28008;BME280;15333;50.010;20.020;2022-10-15T13:59:50;98657.44;;;18.19;47.80
28008;BME280;15333;50.010;20.020;2022-10-15T14:06:32;98656.06;;;18.07;47.64
28008;BME280;15333;50.010;20.020;2022-10-15T14:09:36;98653.31;;;17.91;48.55
28008;BME280;15333;50.010;20.020;2022-10-15T14:12:39;98653.31;;;17.91;48.68
28008;BME280;15333;50.010;20.020;2022-10-15T14:18:55;98659.69;;;17.66;48.96
28008;BME280;15333;50.010;20.020;2022-10-15T14:21:58;98662.69;;;17.63;48.69
28008;BME280;15333;50.010;20.020;2022-10-15T14:25:07;98659.38;;;17.69;49.08
28008;BME280;15333;50.010;20.020;2022-10-15T14:28:20;98666.03;;;17.56;49.63
28008;BME280;15333;50.010;20.020;2022-10-15T14:31:31;98657.88;;;17.48;49.92
28008;BME280;15333;50.010;20.020;2022-10-15T14:37:37;98666.94;;;17.31;51.32
28008;BME280;15333;50.010;20.020;2022-10-15T14:40:39;98676.06;;;17.30;51.20
28008;BME280;15333;50.010;20.020;2022-10-15T14:43:41;98671.59;;;17.21;51.54
28008;BME280;15333;50.010;20.020;2022-10-15T14:46:45;98679.66;;;17.13;51.94
28008;BME280;15333;50.010;20.020;2022-10-15T14:49:51;98679.66;;;17.13;51.74
28008;BME280;15333;50.010;20.020;2022-10-15T14:52:53;98683.72;;;17.09;52.05
28008;BME280;15333;50.010;20.020;2022-10-15T14:56:01;98675.03;;;16.97;52.45
28008;BME280;15333;50.010;20.020;2022-10-15T14:59:03;98680.22;;;16.91;53.06
28008;BME280;15333;50.010;20.020;2022-10-15T15:02:12;98687.94;;;16.86;53.38
28008;BME280;15333;50.010;20.020;2022-10-15T15:05:25;98692.50;;;16.85;53.37
28008;BME280;15333;50.010;20.020;2022-10-15T15:08:26;98692.63;;;16.75;54.07
28008;BME280;15333;50.010;20.020;2022-10-15T15:11:27;98699.41;;;16.79;53.63
28008;BME280;15333;50.010;20.020;2022-10-15T15:14:28;98695.63;;;16.72;53.76
28008;BME280;15333;50.010;20.020;2022-10-15T15:17:29;98701.72;;;16.74;54.25
28008;BME280;15333;50.010;20.020;2022-10-15T15:20:31;98701.19;;;16.71;53.79
28008;BME280;15333;50.010;20.020;2022-10-15T15:23:32;98700.09;;;16.64;53.70
28008;BME280;15333;50.010;20.020;2022-10-15T15:26:34;98702.66;;;16.65;54.12
28008;BME280;15333;50.010;20.020;2022-10-15T15:29:35;98705.03;;;16.51;54.36
28008;BME280;15333;50.010;20.020;2022-10-15T15:32:35;98704.50;;;16.47;54.88
28008;BME280;15333;50.010;20.020;2022-10-15T15:35:43;98704.81;;;16.44;54.71
28008;BME280;15333;50.010;20.020;2022-10-15T15:38:51;98703.19;;;16.33;55.63
28008;BME280;15333;50.010;20.020;2022-10-15T15:41:52;98702.03;;;16.36;55.73
28008;BME280;15333;50.010;20.020;2022-10-15T15:44:53;98707.34;;;16.28;56.33
28008;BME280;15333;50.010;20.020;2022-10-15T15:47:54;98708.38;;;16.27;56.09
28008;BME280;15333;50.010;20.020;2022-10-15T15:51:04;98706.19;;;16.13;56.40
28008;BME280;15333;50.010;20.020;2022-10-15T15:54:06;98703.31;;;16.14;56.47
28008;BME280;15333;50.010;20.020;2022-10-15T15:57:09;98710.97;;;16.19;56.48
28008;BME280;15333;50.010;20.020;2022-10-15T16:00:11;98709.28;;;16.18;56.79
28008;BME280;15333;50.010;20.020;2022-10-15T16:03:13;98710.19;;;16.09;56.88
28008;BME280;15333;50.010;20.020;2022-10-15T16:06:14;98704.19;;;16.15;56.23
28008;BME280;15333;50.010;20.020;2022-10-15T16:09:17;98706.78;;;16.06;57.42
28008;BME280;15333;50.010;20.020;2022-10-15T16:12:18;98700.91;;;15.93;57.23
28008;BME280;15333;50.010;20.020;2022-10-15T16:15:19;98707.25;;;15.84;57.54
28008;BME280;15333;50.010;20.020;2022-10-15T16:18:19;98701.00;;;15.84;57.39
28008;BME280;15333;50.010;20.020;2022-10-15T16:21:25;98703.94;;;15.90;57.13
28008;BME280;15333;50.010;20.020;2022-10-15T16:24:26;98703.69;;;16.01;56.94
28008;BME280;15333;50.010;20.020;2022-10-15T16:27:27;98708.50;;;16.08;56.44
28008;BME280;15333;50.010;20.020;2022-10-15T16:30:28;98718.91;;;16.02;56.29
28008;BME280;15333;50.010;20.020;2022-10-15T16:33:29;98715.50;;;16.00;56.73
28008;BME280;15333;50.010;20.020;2022-10-15T16:36:31;98724.16;;;16.04;55.89
28008;BME280;15333;50.010;20.020;2022-10-15T16:39:32;98731.31;;;16.13;55.41
28008;BME280;15333;50.010;20.020;2022-10-15T16:42:33;98738.75;;;16.11;56.11
28008;BME280;15333;50.010;20.020;2022-10-15T16:45:34;98736.28;;;16.18;55.09
28008;BME280;15333;50.010;20.020;2022-10-15T16:48:34;98740.22;;;16.23;54.80
28008;BME280;15333;50.010;20.020;2022-10-15T16:51:35;98747.63;;;16.21;55.01
28008;BME280;15333;50.010;20.020;2022-10-15T16:54:37;98744.38;;;16.18;55.16
28008;BME280;15333;50.010;20.020;2022-10-15T16:57:38;98748.56;;;16.12;55.80
28008;BME280;15333;50.010;20.020;2022-10-15T17:00:39;98756.94;;;16.09;55.38
28008;BME280;15333;50.010;20.020;2022-10-15T17:03:41;98757.09;;;16.08;55.20
28008;BME280;15333;50.010;20.020;2022-10-15T17:06:42;98756.78;;;16.11;54.96
28008;BME280;15333;50.010;20.020;2022-10-15T17:09:46;98770.19;;;16.02;56.21
28008;BME280;15333;50.010;20.020;2022-10-15T17:12:47;98768.88;;;16.06;55.51
28008;BME280;15333;50.010;20.020;2022-10-15T17:15:48;98770.78;;;16.24;53.78
28008;BME280;15333;50.010;20.020;2022-10-15T17:18:49;98769.16;;;16.31;53.26
28008;BME280;15333;50.010;20.020;2022-10-15T17:21:51;98770.25;;;16.38;52.73
28008;BME280;15333;50.010;20.020;2022-10-15T17:24:52;98759.69;;;16.44;52.34
28008;BME280;15333;50.010;20.020;2022-10-15T17:27:53;98771.63;;;16.42;52.75
28008;BME280;15333;50.010;20.020;2022-10-15T17:30:54;98777.03;;;16.42;52.52
28008;BME280;15333;50.010;20.020;2022-10-15T17:34:03;98781.53;;;16.51;52.37